Time;durP1;ratioP1;P1;durP2;ratioP2;P2;SDS_P1;SDS_P2;PMS_P1;PMS_P2;Temp;Humidity;BMP_temperature;BMP_pressure;BME280_temperature;BME280_humidity;BME280_pressure;Samples;Min_cycle;Max_cycle;Signal;HPM_P1;HPM_P2
2024/01/25 00:02:21;;;;;;;10.57;0.55;;;8.20;99.90;;;;;;5014350;28;20037;-82
2024/01/25 00:04:46;;;;;;;5.05;1.23;;;8.20;99.90;;;;;;5015611;28;20059;-82
2024/01/25 00:07:12;;;;;;;9.63;1.08;;;8.20;99.90;;;;;;5014775;28;20104;-81
2024/01/25 00:09:38;;;;;;;4.53;1.08;;;8.20;99.90;;;;;;5019683;28;20045;-81
2024/01/25 00:12:04;;;;;;;4.82;1.38;;;8.20;99.90;;;;;;5006211;28;20153;-82
2024/01/25 00:14:30;;;;;;;4.07;0.98;;;8.10;99.90;;;;;;4999714;28;20429;-82
2024/01/25 00:16:55;;;;;;;3.15;0.82;;;8.00;99.90;;;;;;4998734;28;20116;-82
2024/01/25 00:19:21;;;;;;;0.65;0.20;;;8.00;99.90;;;;;;5020214;28;20098;-82
2024/01/25 00:21:47;;;;;;;4.03;1.58;;;8.00;99.90;;;;;;5004784;28;20049;-82
2024/01/25 00:24:13;;;;;;;3.72;0.50;;;7.90;99.90;;;;;;5013715;28;20118;-82
2024/01/25 00:26:42;;;;;;;2.50;0.65;;;7.80;99.90;;;;;;5014277;28;20068;-82
2024/01/25 00:29:08;;;;;;;6.50;1.52;;;7.80;99.90;;;;;;4996778;28;20041;-82
2024/01/25 00:31:33;;;;;;;11.25;1.10;;;7.80;99.90;;;;;;5005352;28;20045;-82
2024/01/25 00:34:00;;;;;;;5.50;1.33;;;7.70;99.90;;;;;;5013060;28;20049;-82
2024/01/25 00:36:26;;;;;;;20.50;2.03;;;7.70;99.90;;;;;;5014246;28;20116;-82
2024/01/25 00:38:54;;;;;;;4.63;0.93;;;7.70;99.90;;;;;;5012680;28;20091;-82
2024/01/25 00:41:20;;;;;;;9.00;1.17;;;7.70;99.90;;;;;;5019308;28;20041;-82
2024/01/25 00:43:46;;;;;;;6.88;1.48;;;7.60;99.90;;;;;;5013900;28;20632;-82
2024/01/25 00:46:13;;;;;;;9.52;0.68;;;7.70;99.90;;;;;;5000787;28;20566;-81
2024/01/25 00:48:42;;;;;;;10.95;1.42;;;7.70;99.90;;;;;;5014829;28;20041;-81
2024/01/25 00:51:20;;;;;;;13.15;1.83;;;7.70;99.90;;;;;;5014012;28;20072;-81
2024/01/25 00:53:48;;;;;;;3.35;0.57;;;7.60;99.90;;;;;;5010975;28;20044;-81
2024/01/25 00:56:14;;;;;;;11.93;1.85;;;7.50;99.90;;;;;;4998669;28;20402;-81
2024/01/25 00:58:40;;;;;;;6.63;0.57;;;7.50;99.90;;;;;;4996377;28;20048;-81
2024/01/25 01:01:06;;;;;;;1.45;0.60;;;7.50;99.90;;;;;;5004522;28;20045;-81
2024/01/25 01:03:32;;;;;;;1.88;0.68;;;7.40;99.90;;;;;;4997927;28;20454;-82
2024/01/25 01:05:58;;;;;;;1.55;0.85;;;7.30;99.90;;;;;;5014680;28;20108;-82
2024/01/25 01:08:25;;;;;;;4.43;1.30;;;7.20;99.90;;;;;;5013493;28;20550;-82
2024/01/25 01:10:50;;;;;;;10.93;1.17;;;7.20;99.90;;;;;;5000379;28;20139;-82
2024/01/25 01:13:16;;;;;;;1.63;0.52;;;7.00;99.90;;;;;;5010932;28;20116;-82
2024/01/25 01:15:42;;;;;;;9.75;1.27;;;7.00;99.90;;;;;;5014049;28;20037;-81
2024/01/25 01:18:07;;;;;;;7.03;0.63;;;7.00;99.90;;;;;;5014496;28;20125;-82
2024/01/25 01:20:33;;;;;;;9.63;1.52;;;7.00;99.90;;;;;;5011945;28;20400;-81
2024/01/25 01:22:59;;;;;;;6.65;1.33;;;7.00;99.90;;;;;;5012807;28;20044;-81
2024/01/25 01:25:24;;;;;;;2.05;0.32;;;6.90;99.90;;;;;;5013999;28;20042;-81
2024/01/25 01:27:50;;;;;;;10.40;1.65;;;6.90;99.90;;;;;;5020440;28;20413;-82
2024/01/25 01:30:16;;;;;;;6.47;0.63;;;6.90;99.90;;;;;;5013473;28;20140;-82
2024/01/25 01:32:41;;;;;;;2.72;1.40;;;6.90;99.90;;;;;;5003120;28;20513;-81
2024/01/25 01:35:07;;;;;;;4.85;1.08;;;6.80;99.90;;;;;;5009773;28;20147;-82
2024/01/25 01:37:33;;;;;;;9.27;1.20;;;6.80;99.90;;;;;;5013606;28;20041;-81
2024/01/25 01:39:59;;;;;;;2.38;0.85;;;6.80;99.90;;;;;;5012399;28;20447;-82
2024/01/25 01:42:27;;;;;;;9.38;0.95;;;6.70;99.90;;;;;;4993567;28;20453;-82
2024/01/25 01:44:52;;;;;;;6.10;0.75;;;6.60;99.90;;;;;;5012205;28;20033;-82
2024/01/25 01:47:19;;;;;;;3.72;0.22;;;6.60;99.90;;;;;;5013412;28;20050;-82
2024/01/25 01:49:44;;;;;;;3.85;0.70;;;6.60;99.90;;;;;;5013201;28;20033;-82
2024/01/25 01:52:11;;;;;;;6.80;0.65;;;6.50;99.90;;;;;;5012573;28;20515;-82
2024/01/25 01:54:38;;;;;;;17.33;1.48;;;6.40;99.90;;;;;;5011735;28;20038;-82
2024/01/25 01:57:04;;;;;;;4.43;0.88;;;6.40;99.90;;;;;;5024631;28;20040;-82
2024/01/25 01:59:31;;;;;;;6.80;0.47;;;6.40;99.90;;;;;;5010552;28;20030;-82
2024/01/25 02:01:57;;;;;;;2.25;0.88;;;6.30;99.90;;;;;;5029325;28;20041;-81
2024/01/25 02:04:22;;;;;;;9.45;1.98;;;6.30;99.90;;;;;;5013308;28;20045;-81
2024/01/25 02:06:48;;;;;;;4.18;1.10;;;6.30;99.90;;;;;;5000484;28;20075;-81
2024/01/25 02:09:14;;;;;;;16.17;1.73;;;6.30;99.90;;;;;;5012713;28;20057;-81
2024/01/25 02:11:40;;;;;;;1.17;0.30;;;6.20;99.90;;;;;;5012416;28;20132;-82
2024/01/25 02:14:10;;;;;;;3.90;0.80;;;6.20;99.90;;;;;;5008665;28;20183;-81
2024/01/25 02:16:36;;;;;;;4.30;1.08;;;6.20;99.90;;;;;;4993530;28;20041;-81
2024/01/25 02:19:02;;;;;;;4.00;0.88;;;6.20;99.90;;;;;;5012481;28;20405;-81
2024/01/25 02:21:27;;;;;;;2.58;0.47;;;6.10;99.90;;;;;;5012449;28;20492;-81
2024/01/25 02:23:53;;;;;;;4.72;1.45;;;6.10;99.90;;;;;;4998759;28;20041;-81
2024/01/25 02:26:19;;;;;;;1.77;0.65;;;6.00;99.90;;;;;;5018018;28;20037;-82
2024/01/25 02:28:44;;;;;;;3.28;1.08;;;6.00;99.90;;;;;;5011849;28;20042;-81
2024/01/25 02:31:10;;;;;;;8.98;1.63;;;6.00;99.90;;;;;;5010235;28;20550;-81
2024/01/25 02:33:36;;;;;;;4.80;1.02;;;6.00;99.90;;;;;;5012204;28;20029;-82
2024/01/25 02:36:01;;;;;;;3.67;1.02;;;6.00;99.90;;;;;;5012513;28;20049;-82
2024/01/25 02:38:27;;;;;;;1.33;0.35;;;5.90;99.90;;;;;;5011749;28;20040;-82
2024/01/25 02:40:56;;;;;;;2.72;0.70;;;5.90;99.90;;;;;;4997265;28;20053;-81
2024/01/25 02:43:22;;;;;;;7.57;1.88;;;5.90;99.90;;;;;;5013130;28;20033;-82
2024/01/25 02:45:48;;;;;;;5.93;0.90;;;5.80;99.90;;;;;;5012664;28;20056;-81
2024/01/25 02:48:14;;;;;;;11.20;1.45;;;5.80;99.90;;;;;;5011896;28;20049;-81
2024/01/25 02:50:40;;;;;;;2.92;0.82;;;5.80;99.90;;;;;;5009030;28;20037;-81
2024/01/25 02:53:06;;;;;;;14.40;1.45;;;5.80;99.90;;;;;;5002801;28;20512;-81
2024/01/25 02:55:32;;;;;;;5.50;0.52;;;5.70;99.90;;;;;;5021444;28;20033;-82
2024/01/25 02:57:57;;;;;;;5.85;0.88;;;5.70;99.90;;;;;;5011953;28;20041;-81
2024/01/25 03:00:23;;;;;;;7.07;1.17;;;5.60;99.90;;;;;;5026178;28;20520;-81
2024/01/25 03:02:49;;;;;;;6.18;0.47;;;5.70;99.90;;;;;;5009618;28;20041;-81
2024/01/25 03:05:14;;;;;;;7.45;1.25;;;5.60;99.90;;;;;;5005605;28;20052;-82
2024/01/25 03:07:40;;;;;;;6.45;0.73;;;5.60;99.90;;;;;;5011802;28;20049;-81
2024/01/25 03:10:06;;;;;;;5.25;0.90;;;5.60;99.90;;;;;;5008186;28;20124;-81
2024/01/25 03:12:32;;;;;;;3.63;1.40;;;5.50;99.90;;;;;;4994678;28;20041;-81
2024/01/25 03:14:58;;;;;;;4.95;1.02;;;5.50;99.90;;;;;;5012369;28;20048;-81
2024/01/25 03:17:24;;;;;;;2.38;0.60;;;5.50;99.90;;;;;;5016300;28;20354;-81
2024/01/25 03:19:49;;;;;;;12.88;1.33;;;5.50;99.90;;;;;;4995396;28;20622;-82
2024/01/25 03:22:15;;;;;;;10.20;1.15;;;5.50;99.90;;;;;;5013866;28;20083;-81
2024/01/25 03:24:41;;;;;;;6.32;1.50;;;5.50;99.90;;;;;;5008518;28;20044;-81
2024/01/25 03:27:13;;;;;;;1.92;0.63;;;5.40;99.90;;;;;;5000473;28;20468;-81
2024/01/25 03:29:41;;;;;;;2.22;0.55;;;5.40;99.90;;;;;;5002213;28;20042;-81
2024/01/25 03:32:06;;;;;;;4.93;1.10;;;5.40;99.90;;;;;;4992112;28;20342;-81
2024/01/25 03:34:32;;;;;;;5.93;0.82;;;5.40;99.90;;;;;;5022151;28;20539;-82
2024/01/25 03:36:58;;;;;;;4.72;0.60;;;5.40;99.90;;;;;;4995918;28;20046;-81
2024/01/25 03:39:24;;;;;;;4.82;1.58;;;5.40;99.90;;;;;;4994567;28;20447;-81
2024/01/25 03:41:49;;;;;;;6.80;1.33;;;5.30;99.90;;;;;;4995604;28;20045;-81
2024/01/25 03:44:15;;;;;;;7.43;0.68;;;5.30;99.90;;;;;;5011242;28;20516;-82
2024/01/25 03:46:41;;;;;;;6.38;0.60;;;5.30;99.90;;;;;;5012410;28;20064;-81
2024/01/25 03:49:06;;;;;;;2.60;0.47;;;5.30;99.90;;;;;;5007102;28;20045;-81
2024/01/25 03:51:32;;;;;;;2.75;0.60;;;5.30;99.90;;;;;;4995084;28;20037;-81
2024/01/25 03:53:58;;;;;;;4.28;1.55;;;5.20;99.90;;;;;;5009938;28;20037;-81
2024/01/25 03:56:25;;;;;;;11.13;1.27;;;5.20;99.90;;;;;;4995517;28;20287;-81
2024/01/25 03:58:54;;;;;;;4.55;1.42;;;5.20;99.90;;;;;;5000962;28;20118;-81
2024/01/25 04:01:20;;;;;;;6.90;1.10;;;5.20;99.90;;;;;;5025437;28;20038;-81
2024/01/25 04:03:45;;;;;;;8.90;1.02;;;5.10;99.90;;;;;;5019161;28;20043;-81
2024/01/25 04:06:11;;;;;;;3.03;0.50;;;5.00;99.90;;;;;;5000630;28;20037;-82
2024/01/25 04:08:37;;;;;;;4.10;1.35;;;5.00;99.90;;;;;;5011755;28;20057;-82
2024/01/25 04:11:03;;;;;;;5.57;0.73;;;5.00;99.90;;;;;;5019330;28;20132;-82
2024/01/25 04:13:29;;;;;;;7.22;1.65;;;5.00;99.90;;;;;;5011284;28;20477;-82
2024/01/25 04:15:54;;;;;;;2.20;0.40;;;5.00;99.90;;;;;;5013273;28;20136;-82
2024/01/25 04:18:20;;;;;;;9.55;0.70;;;4.90;99.90;;;;;;5024877;28;20041;-82
2024/01/25 04:20:46;;;;;;;5.07;1.35;;;5.00;99.90;;;;;;5015474;28;20041;-81
2024/01/25 04:23:12;;;;;;;12.10;1.75;;;4.80;99.90;;;;;;4999273;28;20490;-81
2024/01/25 04:25:38;;;;;;;6.03;0.68;;;4.90;99.90;;;;;;5011194;28;20051;-81
2024/01/25 04:28:04;;;;;;;5.10;0.45;;;4.90;99.90;;;;;;4998410;28;20055;-81
2024/01/25 04:30:31;;;;;;;8.40;0.93;;;4.90;99.90;;;;;;5013696;28;20484;-81
2024/01/25 04:32:57;;;;;;;1.20;0.90;;;4.90;99.90;;;;;;5009183;28;20119;-81
2024/01/25 04:35:23;;;;;;;3.47;0.73;;;4.90;99.90;;;;;;4999014;28;20038;-81
2024/01/25 04:37:48;;;;;;;9.35;1.48;;;4.90;99.90;;;;;;5017201;28;20038;-81
2024/01/25 04:40:14;;;;;;;4.72;1.17;;;4.80;99.90;;;;;;5029354;28;20037;-81
2024/01/25 04:42:40;;;;;;;4.38;0.52;;;4.80;99.90;;;;;;5012104;28;20512;-81
2024/01/25 04:45:06;;;;;;;5.03;1.05;;;4.80;99.90;;;;;;5014959;28;20542;-82
2024/01/25 04:47:32;;;;;;;1.38;0.70;;;4.80;99.90;;;;;;4997746;28;20087;-82
2024/01/25 04:49:57;;;;;;;4.43;1.10;;;4.80;99.90;;;;;;5015462;28;20049;-82
2024/01/25 04:52:23;;;;;;;9.43;1.00;;;4.70;99.90;;;;;;5016140;28;20053;-82
2024/01/25 04:54:49;;;;;;;0.95;0.47;;;4.70;99.90;;;;;;5014560;28;20037;-82
2024/01/25 04:57:14;;;;;;;8.73;1.20;;;4.70;99.90;;;;;;4999966;28;20052;-82
2024/01/25 04:59:40;;;;;;;1.88;1.00;;;4.70;99.90;;;;;;4998241;28;20476;-82
2024/01/25 05:02:06;;;;;;;6.22;0.70;;;4.70;99.90;;;;;;5013911;28;20041;-82
2024/01/25 05:04:32;;;;;;;4.93;0.60;;;4.70;99.90;;;;;;5014923;28;20040;-82
2024/01/25 05:06:57;;;;;;;9.88;0.98;;;4.70;99.90;;;;;;5003668;28;20053;-82
2024/01/25 05:09:23;;;;;;;4.43;1.05;;;4.70;99.90;;;;;;5005296;28;20075;-81
2024/01/25 05:11:49;;;;;;;16.70;1.90;;;4.70;99.90;;;;;;4999310;28;20034;-82
2024/01/25 05:14:14;;;;;;;8.07;1.10;;;4.70;99.90;;;;;;5017470;28;20045;-82
2024/01/25 05:16:40;;;;;;;5.28;0.55;;;4.70;99.90;;;;;;4997676;28;20065;-81
2024/01/25 05:19:06;;;;;;;7.07;1.95;;;4.70;99.90;;;;;;4997432;28;20061;-81
2024/01/25 05:21:32;;;;;;;3.22;0.50;;;4.70;99.90;;;;;;5014835;28;20053;-82
2024/01/25 05:23:57;;;;;;;3.13;1.15;;;4.70;99.90;;;;;;5013690;28;20120;-82
2024/01/25 05:26:23;;;;;;;4.35;0.60;;;4.70;99.90;;;;;;4996220;28;20451;-81
2024/01/25 05:28:49;;;;;;;9.48;1.42;;;4.70;99.90;;;;;;5001184;28;20168;-82
2024/01/25 05:31:16;;;;;;;7.70;1.60;;;4.60;99.90;;;;;;5010802;28;20056;-81
2024/01/25 05:33:45;;;;;;;6.78;1.25;;;4.60;99.90;;;;;;4993401;28;20124;-82
2024/01/25 05:36:12;;;;;;;5.32;1.20;;;4.60;99.90;;;;;;5015290;28;20037;-81
2024/01/25 05:38:37;;;;;;;6.60;1.45;;;4.60;99.90;;;;;;4996196;28;20464;-82
2024/01/25 05:41:03;;;;;;;4.85;2.70;;;4.50;99.90;;;;;;5010473;28;20235;-82
2024/01/25 05:43:29;;;;;;;8.25;1.20;;;4.60;99.90;;;;;;5013987;28;20034;-82
2024/01/25 05:45:55;;;;;;;8.23;1.77;;;4.50;99.90;;;;;;5001557;28;20163;-82
2024/01/25 05:48:20;;;;;;;5.63;0.43;;;4.50;99.90;;;;;;4996824;28;20037;-82
2024/01/25 05:50:47;;;;;;;2.05;1.00;;;4.50;99.90;;;;;;5013984;28;20049;-82
2024/01/25 05:53:13;;;;;;;5.75;1.15;;;4.40;99.90;;;;;;4999190;28;20073;-82
2024/01/25 05:55:39;;;;;;;0.88;0.63;;;4.50;99.90;;;;;;5011167;28;20540;-82
2024/01/25 05:58:05;;;;;;;2.30;0.68;;;4.50;99.90;;;;;;4996315;28;20110;-82
2024/01/25 06:00:30;;;;;;;4.20;0.63;;;4.50;99.90;;;;;;5012484;28;20107;-82
2024/01/25 06:02:56;;;;;;;5.85;1.05;;;4.50;99.90;;;;;;5009242;28;20041;-82
2024/01/25 06:05:22;;;;;;;1.50;0.20;;;4.50;99.90;;;;;;5000436;28;20128;-82
2024/01/25 06:07:49;;;;;;;1.67;0.35;;;4.50;99.90;;;;;;4994413;28;20099;-82
2024/01/25 06:10:18;;;;;;;6.03;0.55;;;4.50;99.90;;;;;;5013383;28;20616;-82
2024/01/25 06:12:44;;;;;;;2.05;0.93;;;4.40;99.90;;;;;;5012446;28;20052;-82
2024/01/25 06:15:10;;;;;;;5.40;0.68;;;4.40;99.90;;;;;;5012613;28;20033;-82
2024/01/25 06:17:35;;;;;;;5.15;1.15;;;4.40;99.90;;;;;;4998142;28;20034;-82
2024/01/25 06:20:02;;;;;;;4.78;1.05;;;4.40;99.90;;;;;;5004830;28;20038;-82
2024/01/25 06:22:28;;;;;;;8.57;1.38;;;4.40;99.90;;;;;;5001029;28;20053;-82
2024/01/25 06:24:54;;;;;;;10.45;1.50;;;4.30;99.90;;;;;;5004486;28;20501;-82
2024/01/25 06:27:19;;;;;;;2.05;0.20;;;4.30;99.90;;;;;;4995855;28;20089;-82
2024/01/25 06:29:45;;;;;;;2.33;0.80;;;4.20;99.90;;;;;;5012019;28;20037;-82
2024/01/25 06:32:11;;;;;;;7.45;0.77;;;4.20;99.90;;;;;;5012076;28;20052;-82
2024/01/25 06:34:36;;;;;;;3.30;0.77;;;4.20;99.90;;;;;;5012568;28;20120;-82
2024/01/25 06:37:02;;;;;;;4.88;1.52;;;4.20;99.90;;;;;;5013354;28;20034;-82
2024/01/25 06:39:28;;;;;;;3.40;0.80;;;4.10;99.90;;;;;;5007961;28;20527;-82
2024/01/25 06:41:54;;;;;;;11.98;5.57;;;4.10;99.90;;;;;;5009558;28;20111;-82
2024/01/25 06:44:20;;;;;;;11.32;2.83;;;4.10;99.90;;;;;;4994313;28;20033;-82
2024/01/25 06:46:45;;;;;;;6.57;1.15;;;4.00;99.90;;;;;;4991749;28;20038;-82
2024/01/25 06:49:11;;;;;;;6.32;0.63;;;4.00;99.90;;;;;;5012413;28;20107;-81
2024/01/25 06:51:37;;;;;;;2.13;0.95;;;4.00;99.90;;;;;;5011707;28;20045;-82
2024/01/25 06:54:03;;;;;;;4.72;0.40;;;4.00;99.90;;;;;;5011029;28;20037;-82
2024/01/25 06:56:29;;;;;;;5.32;0.88;;;4.00;99.90;;;;;;5013029;28;20389;-82
2024/01/25 06:58:54;;;;;;;2.67;1.08;;;3.90;99.90;;;;;;5009129;28;20042;-82
2024/01/25 07:01:22;;;;;;;4.15;0.40;;;3.90;99.90;;;;;;4999933;28;20378;-82
2024/01/25 07:03:48;;;;;;;7.45;1.10;;;3.90;99.90;;;;;;4993329;28;20519;-81
2024/01/25 07:06:13;;;;;;;1.13;0.60;;;3.80;99.90;;;;;;4995570;28;20037;-81
2024/01/25 07:08:39;;;;;;;9.50;0.80;;;3.80;99.90;;;;;;4990569;28;20062;-80
2024/01/25 07:11:05;;;;;;;7.35;0.95;;;3.90;99.90;;;;;;4992146;28;20355;-79
2024/01/25 07:13:30;;;;;;;5.85;1.00;;;3.90;99.90;;;;;;4988621;28;20053;-80
2024/01/25 07:15:56;;;;;;;0.32;0.30;;;3.90;99.90;;;;;;4979021;28;20049;-80
2024/01/25 07:18:24;;;;;;;3.38;0.57;;;3.90;99.90;;;;;;4993889;28;20346;-80
2024/01/25 07:20:50;;;;;;;3.70;0.40;;;3.90;99.90;;;;;;4991465;28;20081;-80
2024/01/25 07:23:16;;;;;;;7.88;0.50;;;4.00;99.90;;;;;;4990396;28;20508;-80
2024/01/25 07:25:41;;;;;;;7.45;0.65;;;4.00;99.90;;;;;;4976888;28;20042;-80
2024/01/25 07:28:07;;;;;;;2.88;0.63;;;4.00;99.90;;;;;;4990833;28;20057;-80
2024/01/25 07:30:33;;;;;;;7.72;0.88;;;4.10;99.90;;;;;;4976062;28;20038;-80
2024/01/25 07:32:58;;;;;;;6.22;0.80;;;4.20;99.90;;;;;;4989719;28;20061;-80
2024/01/25 07:35:24;;;;;;;3.30;0.90;;;4.20;99.90;;;;;;4976444;28;20049;-80
2024/01/25 07:37:50;;;;;;;4.53;1.15;;;4.20;99.90;;;;;;4988719;28;20076;-79
2024/01/25 07:40:16;;;;;;;5.72;0.73;;;4.20;99.90;;;;;;4992125;28;20045;-80
2024/01/25 07:42:41;;;;;;;11.25;0.90;;;4.30;99.90;;;;;;4993066;28;20044;-80
2024/01/25 07:45:08;;;;;;;5.05;1.15;;;4.30;99.90;;;;;;5006497;28;20046;-80
2024/01/25 07:47:33;;;;;;;13.00;0.73;;;4.30;99.90;;;;;;4974542;28;20040;-79
2024/01/25 07:49:59;;;;;;;3.80;0.57;;;4.40;99.90;;;;;;4991171;28;20042;-81
2024/01/25 07:52:25;;;;;;;5.72;0.43;;;4.40;99.90;;;;;;4995162;28;20129;-80
2024/01/25 07:54:53;;;;;;;6.50;1.25;;;4.40;99.90;;;;;;4979527;28;20534;-80
2024/01/25 07:57:19;;;;;;;4.18;0.75;;;4.50;99.90;;;;;;4994073;28;20111;-80
2024/01/25 07:59:45;;;;;;;4.95;1.30;;;4.50;99.90;;;;;;4993119;28;20050;-80
2024/01/25 08:02:10;;;;;;;4.10;0.45;;;4.60;99.90;;;;;;4983365;28;20038;-80
2024/01/25 08:04:36;;;;;;;2.80;0.47;;;4.70;99.90;;;;;;4984881;28;20065;-80
2024/01/25 08:07:02;;;;;;;0.60;0.28;;;4.70;99.90;;;;;;4993218;28;20042;-80
2024/01/25 08:09:29;;;;;;;6.75;1.60;;;4.80;99.90;;;;;;5012147;28;20060;-80
2024/01/25 08:11:55;;;;;;;4.75;0.32;;;4.90;99.90;;;;;;5015624;28;20122;-80
2024/01/25 08:14:21;;;;;;;0.93;0.52;;;4.90;99.90;;;;;;5018890;28;20073;-81
2024/01/25 08:16:46;;;;;;;1.70;0.55;;;5.00;99.90;;;;;;4999316;28;20401;-81
2024/01/25 08:19:12;;;;;;;4.15;0.90;;;5.00;99.90;;;;;;5014690;28;20092;-80
2024/01/25 08:21:38;;;;;;;6.45;0.60;;;5.10;99.90;;;;;;5012960;28;20128;-80
2024/01/25 08:24:04;;;;;;;6.28;1.05;;;5.20;99.90;;;;;;5014606;28;20038;-80
2024/01/25 08:26:29;;;;;;;4.60;1.00;;;5.20;99.90;;;;;;5010794;28;20037;-80
2024/01/25 08:28:55;;;;;;;13.15;0.73;;;5.20;99.90;;;;;;4996749;28;20520;-80
2024/01/25 08:31:21;;;;;;;3.35;0.77;;;5.30;99.90;;;;;;5014557;28;20116;-81
2024/01/25 08:33:47;;;;;;;6.28;0.70;;;5.20;99.90;;;;;;5015139;28;20072;-81
2024/01/25 08:36:16;;;;;;;8.40;1.30;;;5.30;99.90;;;;;;5014848;28;20038;-80
2024/01/25 08:38:42;;;;;;;9.32;1.15;;;5.30;99.90;;;;;;5012150;28;20113;-80
2024/01/25 08:41:08;;;;;;;5.13;1.35;;;5.30;99.90;;;;;;4998997;28;20460;-80
2024/01/25 08:43:34;;;;;;;5.30;0.93;;;5.30;99.90;;;;;;5015045;28;20041;-81
2024/01/25 08:46:01;;;;;;;2.13;0.90;;;5.30;99.90;;;;;;5012532;28;20045;-81
2024/01/25 08:48:27;;;;;;;5.40;1.17;;;5.40;99.90;;;;;;4999288;28;20496;-81
2024/01/25 08:50:54;;;;;;;1.27;0.68;;;5.40;99.90;;;;;;5012046;28;20060;-81
2024/01/25 08:53:27;;;;;;;10.10;2.05;;;5.40;99.90;;;;;;5009250;28;20077;-81
2024/01/25 08:55:53;;;;;;;10.45;1.60;;;5.50;99.90;;;;;;5028259;28;20211;-81
2024/01/25 08:58:19;;;;;;;9.15;1.85;;;5.50;99.90;;;;;;5015465;28;20038;-81
2024/01/25 09:00:45;;;;;;;4.15;1.38;;;5.60;99.90;;;;;;4999058;28;20061;-81
2024/01/25 09:03:11;;;;;;;3.83;0.80;;;5.70;99.90;;;;;;4996631;28;20144;-81
2024/01/25 09:05:40;;;;;;;3.92;0.50;;;5.80;99.90;;;;;;5012070;28;20099;-81
2024/01/25 09:08:07;;;;;;;10.25;1.90;;;5.80;99.90;;;;;;5015896;28;20420;-81
2024/01/25 09:10:32;;;;;;;7.05;1.38;;;6.00;99.90;;;;;;5013669;28;20049;-80
2024/01/25 09:12:58;;;;;;;5.28;1.63;;;6.10;99.90;;;;;;5015116;28;20128;-81
2024/01/25 09:15:24;;;;;;;5.32;0.95;;;6.30;99.90;;;;;;5014432;28;20157;-81
2024/01/25 09:17:50;;;;;;;5.88;0.88;;;6.50;99.90;;;;;;4997982;28;20033;-81
2024/01/25 09:20:15;;;;;;;8.60;1.48;;;6.60;99.90;;;;;;5013684;28;20130;-81
2024/01/25 09:22:42;;;;;;;8.35;1.02;;;6.90;99.90;;;;;;4998142;28;20052;-79
2024/01/25 09:25:07;;;;;;;6.22;1.48;;;7.10;99.90;;;;;;5013434;28;20056;-79
2024/01/25 09:27:33;;;;;;;14.43;1.88;;;7.30;99.90;;;;;;5013385;28;20045;-80
2024/01/25 09:29:59;;;;;;;4.95;0.57;;;7.40;99.90;;;;;;5012855;28;20054;-80
2024/01/25 09:32:24;;;;;;;3.70;0.88;;;7.40;99.90;;;;;;5013445;28;20453;-80
2024/01/25 09:34:50;;;;;;;11.77;0.80;;;7.40;99.90;;;;;;5013577;28;20048;-80
2024/01/25 09:37:17;;;;;;;10.23;1.50;;;7.40;99.90;;;;;;5014272;28;20045;-80
2024/01/25 09:39:43;;;;;;;15.23;1.83;;;7.40;99.90;;;;;;4995292;28;20038;-81
2024/01/25 09:42:10;;;;;;;14.52;1.73;;;7.40;99.90;;;;;;5012740;28;20037;-80
2024/01/25 09:44:38;;;;;;;7.63;1.05;;;7.30;99.90;;;;;;5013958;28;20045;-80
2024/01/25 09:47:05;;;;;;;8.95;0.90;;;7.20;99.90;;;;;;4990110;28;20042;-81
2024/01/25 09:49:31;;;;;;;7.88;1.58;;;7.10;99.90;;;;;;5004171;28;20052;-81
2024/01/25 09:51:57;;;;;;;10.43;1.30;;;7.10;99.90;;;;;;5001821;28;20037;-81
2024/01/25 09:54:24;;;;;;;11.43;0.80;;;7.00;99.90;;;;;;5013635;28;20033;-80
2024/01/25 09:56:53;;;;;;;3.95;0.73;;;7.00;99.90;;;;;;5012533;28;20113;-80
2024/01/25 09:59:19;;;;;;;5.72;1.13;;;6.90;99.90;;;;;;5022613;28;20041;-80
2024/01/25 10:01:46;;;;;;;4.25;0.98;;;6.90;99.90;;;;;;5027093;28;20029;-80
2024/01/25 10:04:12;;;;;;;7.72;1.85;;;6.90;99.90;;;;;;5017494;28;20048;-80
2024/01/25 10:06:37;;;;;;;1.92;0.68;;;6.90;99.90;;;;;;5013023;28;20493;-80
2024/01/25 10:09:04;;;;;;;5.47;0.80;;;7.00;99.90;;;;;;5011744;28;20058;-76
2024/01/25 10:11:35;;;;;;;10.35;1.00;;;7.00;99.90;;;;;;5008134;28;20448;-80
2024/01/25 10:14:01;;;;;;;6.90;1.85;;;7.10;99.90;;;;;;4991954;28;20046;-78
2024/01/25 10:16:27;;;;;;;5.03;1.33;;;7.20;99.90;;;;;;4974762;28;20079;-78
2024/01/25 10:19:07;;;;;;;13.05;1.23;;;7.30;99.90;;;;;;4990400;28;20146;-77
2024/01/25 10:21:36;;;;;;;2.58;0.95;;;7.40;99.90;;;;;;4990678;28;20052;-77
2024/01/25 10:24:03;;;;;;;2.17;0.80;;;7.40;99.90;;;;;;4991198;28;20042;-77
2024/01/25 10:26:28;;;;;;;6.60;1.67;;;7.40;99.90;;;;;;4993685;28;20117;-77
2024/01/25 10:28:54;;;;;;;7.38;1.35;;;7.40;99.90;;;;;;4988960;28;20117;-76
2024/01/25 10:31:24;;;;;;;8.40;1.00;;;7.40;99.90;;;;;;4998122;28;20045;-76
2024/01/25 10:33:53;;;;;;;7.13;1.25;;;7.50;99.90;;;;;;4993427;28;20042;-77
2024/01/25 10:36:23;;;;;;;5.03;1.17;;;7.50;99.90;;;;;;4971440;28;20049;-76
2024/01/25 10:38:52;;;;;;;9.82;1.23;;;7.50;99.90;;;;;;4976425;28;20489;-75
2024/01/25 10:41:19;;;;;;;6.68;1.27;;;7.50;99.90;;;;;;4994626;28;20034;-78
2024/01/25 10:43:45;;;;;;;5.25;1.17;;;7.50;99.90;;;;;;4994908;28;20033;-78
2024/01/25 10:46:11;;;;;;;5.43;1.00;;;7.50;99.90;;;;;;4991508;28;20037;-78
2024/01/25 10:48:38;;;;;;;3.78;0.77;;;7.50;99.90;;;;;;4989977;28;20089;-78
2024/01/25 10:51:05;;;;;;;3.35;1.10;;;7.60;99.90;;;;;;4991722;28;20200;-75
2024/01/25 10:53:35;;;;;;;5.88;0.95;;;7.60;99.90;;;;;;4990796;28;20042;-78
2024/01/25 10:56:02;;;;;;;4.65;1.15;;;7.60;99.90;;;;;;4973912;28;20042;-77
2024/01/25 10:58:35;;;;;;;6.20;1.20;;;7.70;99.90;;;;;;4989895;28;20037;-78
2024/01/25 11:01:03;;;;;;;4.55;1.02;;;7.70;99.90;;;;;;4992881;28;20543;-78
2024/01/25 11:03:30;;;;;;;7.57;1.67;;;7.70;99.90;;;;;;4999397;28;20045;-77
2024/01/25 11:06:10;;;;;;;7.72;2.20;;;7.80;99.90;;;;;;4974079;28;20088;-78
2024/01/25 11:08:39;;;;;;;4.00;1.40;;;7.80;99.90;;;;;;4978954;28;20057;-78
2024/01/25 11:11:09;;;;;;;16.92;1.63;;;7.80;99.90;;;;;;5008246;28;20568;-77
2024/01/25 11:13:38;;;;;;;2.63;0.63;;;7.90;99.90;;;;;;5009247;28;20271;-77
2024/01/25 11:16:14;;;;;;;5.82;1.00;;;8.00;99.90;;;;;;4995645;28;20072;-78
2024/01/25 11:18:54;;;;;;;6.13;0.98;;;8.10;99.90;;;;;;5010219;28;20033;-78
2024/01/25 11:21:29;;;;;;;4.65;1.35;;;8.30;99.90;;;;;;5011201;28;20509;-82
2024/01/25 11:24:02;;;;;;;14.15;2.30;;;8.40;99.90;;;;;;5010158;28;20041;-78
2024/01/25 11:26:28;;;;;;;9.48;1.08;;;8.40;99.90;;;;;;5017769;28;20048;-78
2024/01/25 11:28:55;;;;;;;10.40;1.25;;;8.60;99.90;;;;;;5011332;28;20568;-78
2024/01/25 11:31:23;;;;;;;4.90;0.68;;;8.70;99.90;;;;;;5015001;28;20083;-78
2024/01/25 11:33:49;;;;;;;5.90;1.58;;;8.80;99.90;;;;;;5015551;28;20444;-78
2024/01/25 11:36:14;;;;;;;10.70;1.25;;;8.90;99.90;;;;;;5015711;28;20095;-78
2024/01/25 11:38:40;;;;;;;2.85;0.98;;;9.00;99.90;;;;;;5015902;28;20033;-79
2024/01/25 11:41:06;;;;;;;4.45;0.90;;;9.10;99.90;;;;;;5015173;28;20528;-78
2024/01/25 11:43:32;;;;;;;10.60;1.45;;;9.20;99.90;;;;;;4996511;28;20049;-80
2024/01/25 11:45:58;;;;;;;7.30;1.13;;;9.30;99.90;;;;;;5015495;28;20103;-79
2024/01/25 11:48:27;;;;;;;4.80;0.95;;;9.30;99.90;;;;;;5015956;28;20413;-79
2024/01/25 11:50:53;;;;;;;3.78;0.77;;;9.30;99.90;;;;;;4998910;28;20068;-79
2024/01/25 11:53:19;;;;;;;5.18;0.90;;;9.30;99.90;;;;;;5014624;28;20037;-79
2024/01/25 11:55:44;;;;;;;10.07;1.13;;;9.20;99.90;;;;;;5014911;28;20349;-79
2024/01/25 11:58:10;;;;;;;5.75;1.23;;;9.20;99.90;;;;;;4998043;28;20485;-70
2024/01/25 12:00:36;;;;;;;12.05;2.08;;;9.10;99.90;;;;;;5013050;28;20040;-68
2024/01/25 12:03:02;;;;;;;8.80;1.77;;;9.00;99.90;;;;;;5015755;28;20088;-67
2024/01/25 12:05:28;;;;;;;8.73;1.27;;;9.00;99.90;;;;;;5014128;28;20453;-68
2024/01/25 12:07:54;;;;;;;9.45;1.35;;;9.00;99.90;;;;;;5011228;28;20049;-80
2024/01/25 12:10:20;;;;;;;6.18;1.55;;;8.90;99.90;;;;;;5001020;28;20143;-78
2024/01/25 12:12:48;;;;;;;5.10;1.38;;;8.90;99.90;;;;;;4995448;28;20033;-79
2024/01/25 12:15:14;;;;;;;10.13;2.17;;;8.90;99.90;;;;;;5018434;28;20548;-77
2024/01/25 12:17:40;;;;;;;4.40;0.95;;;8.90;99.90;;;;;;5000830;28;20042;-73
2024/01/25 12:20:10;;;;;;;10.27;1.80;;;9.00;99.90;;;;;;5003150;28;20057;-81
2024/01/25 12:22:39;;;;;;;9.73;1.52;;;9.10;99.90;;;;;;4999271;28;20037;-81
2024/01/25 12:25:13;;;;;;;7.35;1.70;;;9.30;99.90;;;;;;4979598;28;20135;-81
2024/01/25 12:27:41;;;;;;;6.13;1.95;;;9.40;99.90;;;;;;5003805;28;20473;-81
2024/01/25 12:30:08;;;;;;;11.75;1.27;;;9.30;99.90;;;;;;5006015;28;20042;-80
2024/01/25 12:32:34;;;;;;;5.63;0.80;;;9.30;99.90;;;;;;4979980;28;20053;-81
2024/01/25 12:35:01;;;;;;;7.95;1.98;;;9.20;99.90;;;;;;4985579;28;20509;-81
2024/01/25 12:37:27;;;;;;;8.70;1.13;;;9.20;99.90;;;;;;4997402;28;20059;-81
2024/01/25 12:43:52;;;;;;;12.23;1.20;;;9.40;99.90;;;;;;4989934;28;20112;-81
2024/01/25 12:46:18;;;;;;;10.45;1.73;;;9.30;99.90;;;;;;4998220;28;20560;-81
2024/01/25 12:48:44;;;;;;;10.63;1.38;;;9.30;99.90;;;;;;5010338;28;20038;-81
2024/01/25 12:51:10;;;;;;;2.38;1.02;;;9.30;99.90;;;;;;4982867;28;20095;-81
2024/01/25 12:53:37;;;;;;;6.03;2.05;;;9.30;99.90;;;;;;4983786;28;20048;-80
2024/01/25 12:56:03;;;;;;;5.53;1.92;;;9.30;99.90;;;;;;4964372;28;20081;-80